sensor_id;sensor_type;location;lat;lon;timestamp;P1;durP1;ratioP1;P2;durP2;ratioP2
2187;SDS011;1100;52.014;8.540;2023-02-11T00:00:54;57.03;;;20.67;;
2187;SDS011;1100;52.014;8.540;2023-02-11T00:03:19;49.97;;;19.70;;
2187;SDS011;1100;52.014;8.540;2023-02-11T00:05:45;50.90;;;20.13;;
2187;SDS011;1100;52.014;8.540;2023-02-11T00:08:10;49.77;;;19.83;;
2187;SDS011;1100;52.014;8.540;2023-02-11T00:10:40;54.10;;;21.88;;
2187;SDS011;1100;52.014;8.540;2023-02-11T00:13:06;53.03;;;20.23;;
2187;SDS011;1100;52.014;8.540;2023-02-11T00:15:31;52.30;;;20.37;;
2187;SDS011;1100;52.014;8.540;2023-02-11T00:17:57;51.73;;;19.07;;
2187;SDS011;1100;52.014;8.540;2023-02-11T00:20:22;48.90;;;18.70;;
2187;SDS011;1100;52.014;8.540;2023-02-11T00:22:47;49.93;;;19.97;;
2187;SDS011;1100;52.014;8.540;2023-02-11T00:25:13;54.63;;;20.60;;
2187;SDS011;1100;52.014;8.540;2023-02-11T00:27:38;47.23;;;19.00;;
2187;SDS011;1100;52.014;8.540;2023-02-11T00:30:04;48.40;;;18.80;;
2187;SDS011;1100;52.014;8.540;2023-02-11T00:32:29;51.90;;;20.83;;
2187;SDS011;1100;52.014;8.540;2023-02-11T00:34:55;56.00;;;20.97;;
2187;SDS011;1100;52.014;8.540;2023-02-11T00:37:20;52.20;;;20.50;;
2187;SDS011;1100;52.014;8.540;2023-02-11T00:39:46;46.97;;;19.65;;
2187;SDS011;1100;52.014;8.540;2023-02-11T00:42:13;48.90;;;19.77;;
2187;SDS011;1100;52.014;8.540;2023-02-11T00:44:38;57.55;;;20.65;;
2187;SDS011;1100;52.014;8.540;2023-02-11T00:47:04;52.60;;;21.07;;
2187;SDS011;1100;52.014;8.540;2023-02-11T00:49:29;55.23;;;20.23;;
2187;SDS011;1100;52.014;8.540;2023-02-11T00:51:54;52.40;;;21.40;;
2187;SDS011;1100;52.014;8.540;2023-02-11T00:54:20;56.90;;;21.47;;
2187;SDS011;1100;52.014;8.540;2023-02-11T00:56:45;57.47;;;22.02;;
2187;SDS011;1100;52.014;8.540;2023-02-11T00:59:10;53.93;;;21.10;;
2187;SDS011;1100;52.014;8.540;2023-02-11T01:01:36;63.13;;;20.87;;
2187;SDS011;1100;52.014;8.540;2023-02-11T01:04:01;59.17;;;22.43;;
2187;SDS011;1100;52.014;8.540;2023-02-11T01:06:26;53.27;;;21.10;;
2187;SDS011;1100;52.014;8.540;2023-02-11T01:08:52;63.13;;;21.73;;
2187;SDS011;1100;52.014;8.540;2023-02-11T01:11:18;57.17;;;22.70;;
2187;SDS011;1100;52.014;8.540;2023-02-11T01:13:44;54.00;;;21.50;;
2187;SDS011;1100;52.014;8.540;2023-02-11T01:16:11;61.60;;;22.50;;
2187;SDS011;1100;52.014;8.540;2023-02-11T01:18:37;58.50;;;21.93;;
2187;SDS011;1100;52.014;8.540;2023-02-11T01:21:02;59.70;;;22.43;;
2187;SDS011;1100;52.014;8.540;2023-02-11T01:23:28;56.65;;;23.08;;
2187;SDS011;1100;52.014;8.540;2023-02-11T01:25:54;60.53;;;23.40;;
2187;SDS011;1100;52.014;8.540;2023-02-11T01:28:21;60.75;;;22.67;;
2187;SDS011;1100;52.014;8.540;2023-02-11T01:30:48;63.22;;;23.23;;
2187;SDS011;1100;52.014;8.540;2023-02-11T01:33:14;67.23;;;23.33;;
2187;SDS011;1100;52.014;8.540;2023-02-11T01:35:40;66.73;;;25.50;;
2187;SDS011;1100;52.014;8.540;2023-02-11T01:38:06;72.50;;;25.00;;
2187;SDS011;1100;52.014;8.540;2023-02-11T01:40:32;56.72;;;23.65;;
2187;SDS011;1100;52.014;8.540;2023-02-11T01:42:58;66.88;;;23.80;;
2187;SDS011;1100;52.014;8.540;2023-02-11T01:48:12;65.83;;;23.60;;
2187;SDS011;1100;52.014;8.540;2023-02-11T01:50:41;63.90;;;24.65;;
2187;SDS011;1100;52.014;8.540;2023-02-11T01:53:08;57.20;;;23.55;;
2187;SDS011;1100;52.014;8.540;2023-02-11T01:55:53;61.47;;;23.02;;
2187;SDS011;1100;52.014;8.540;2023-02-11T01:58:39;59.92;;;22.60;;
2187;SDS011;1100;52.014;8.540;2023-02-11T02:01:08;65.83;;;24.47;;
2187;SDS011;1100;52.014;8.540;2023-02-11T02:03:36;63.92;;;24.52;;
2187;SDS011;1100;52.014;8.540;2023-02-11T02:06:11;67.47;;;26.13;;
2187;SDS011;1100;52.014;8.540;2023-02-11T02:09:01;68.53;;;25.70;;
2187;SDS011;1100;52.014;8.540;2023-02-11T02:11:33;69.93;;;26.08;;
2187;SDS011;1100;52.014;8.540;2023-02-11T02:13:59;67.67;;;25.97;;
2187;SDS011;1100;52.014;8.540;2023-02-11T02:16:28;68.80;;;24.27;;
2187;SDS011;1100;52.014;8.540;2023-02-11T02:25:18;67.60;;;23.67;;
2187;SDS011;1100;52.014;8.540;2023-02-11T02:31:18;63.45;;;22.73;;
2187;SDS011;1100;52.014;8.540;2023-02-11T02:33:45;68.07;;;24.23;;
2187;SDS011;1100;52.014;8.540;2023-02-11T02:36:39;67.70;;;25.00;;
2187;SDS011;1100;52.014;8.540;2023-02-11T02:39:24;69.43;;;25.52;;
2187;SDS011;1100;52.014;8.540;2023-02-11T02:41:54;60.42;;;23.92;;
2187;SDS011;1100;52.014;8.540;2023-02-11T02:44:20;69.10;;;25.00;;
2187;SDS011;1100;52.014;8.540;2023-02-11T02:46:46;70.20;;;23.70;;
2187;SDS011;1100;52.014;8.540;2023-02-11T02:49:12;64.40;;;24.27;;
2187;SDS011;1100;52.014;8.540;2023-02-11T03:02:57;63.33;;;23.03;;
2187;SDS011;1100;52.014;8.540;2023-02-11T03:07:57;59.83;;;23.20;;
2187;SDS011;1100;52.014;8.540;2023-02-11T03:10:25;57.33;;;22.67;;
2187;SDS011;1100;52.014;8.540;2023-02-11T03:12:54;60.25;;;23.75;;
2187;SDS011;1100;52.014;8.540;2023-02-11T03:15:21;59.90;;;22.87;;
2187;SDS011;1100;52.014;8.540;2023-02-11T03:17:48;62.30;;;23.95;;
2187;SDS011;1100;52.014;8.540;2023-02-11T03:20:17;57.33;;;23.20;;
2187;SDS011;1100;52.014;8.540;2023-02-11T03:22:47;65.15;;;22.30;;
2187;SDS011;1100;52.014;8.540;2023-02-11T03:25:16;64.35;;;23.63;;
2187;SDS011;1100;52.014;8.540;2023-02-11T03:27:49;69.57;;;24.80;;
2187;SDS011;1100;52.014;8.540;2023-02-11T03:30:21;61.30;;;22.63;;
2187;SDS011;1100;52.014;8.540;2023-02-11T03:33:02;60.53;;;23.40;;
2187;SDS011;1100;52.014;8.540;2023-02-11T03:35:46;63.00;;;23.30;;
2187;SDS011;1100;52.014;8.540;2023-02-11T03:38:19;67.72;;;24.38;;
2187;SDS011;1100;52.014;8.540;2023-02-11T03:40:48;68.50;;;24.67;;
2187;SDS011;1100;52.014;8.540;2023-02-11T03:43:16;63.75;;;23.63;;
2187;SDS011;1100;52.014;8.540;2023-02-11T03:45:45;66.70;;;23.30;;
2187;SDS011;1100;52.014;8.540;2023-02-11T03:48:16;65.63;;;25.02;;
2187;SDS011;1100;52.014;8.540;2023-02-11T03:50:47;65.13;;;24.45;;
2187;SDS011;1100;52.014;8.540;2023-02-11T03:53:14;60.23;;;23.37;;
2187;SDS011;1100;52.014;8.540;2023-02-11T03:55:42;63.08;;;23.42;;
2187;SDS011;1100;52.014;8.540;2023-02-11T03:58:10;61.70;;;22.92;;
2187;SDS011;1100;52.014;8.540;2023-02-11T04:00:36;61.17;;;23.13;;
2187;SDS011;1100;52.014;8.540;2023-02-11T04:03:05;57.05;;;22.17;;
2187;SDS011;1100;52.014;8.540;2023-02-11T04:05:31;70.45;;;22.42;;
2187;SDS011;1100;52.014;8.540;2023-02-11T04:07:57;63.80;;;22.63;;
2187;SDS011;1100;52.014;8.540;2023-02-11T04:10:22;63.07;;;22.07;;
2187;SDS011;1100;52.014;8.540;2023-02-11T04:12:48;56.57;;;22.07;;
2187;SDS011;1100;52.014;8.540;2023-02-11T04:15:13;58.87;;;22.27;;
2187;SDS011;1100;52.014;8.540;2023-02-11T04:17:38;59.93;;;21.63;;
2187;SDS011;1100;52.014;8.540;2023-02-11T04:20:04;59.50;;;21.57;;
2187;SDS011;1100;52.014;8.540;2023-02-11T04:22:29;51.80;;;20.37;;
2187;SDS011;1100;52.014;8.540;2023-02-11T04:24:55;51.47;;;20.58;;
2187;SDS011;1100;52.014;8.540;2023-02-11T04:27:20;57.47;;;22.53;;
2187;SDS011;1100;52.014;8.540;2023-02-11T04:29:46;54.73;;;21.47;;
2187;SDS011;1100;52.014;8.540;2023-02-11T04:32:11;51.03;;;21.43;;
2187;SDS011;1100;52.014;8.540;2023-02-11T04:34:37;50.17;;;20.87;;
2187;SDS011;1100;52.014;8.540;2023-02-11T04:37:02;51.30;;;19.73;;
2187;SDS011;1100;52.014;8.540;2023-02-11T04:39:28;50.23;;;20.10;;
2187;SDS011;1100;52.014;8.540;2023-02-11T04:41:53;51.47;;;18.43;;
2187;SDS011;1100;52.014;8.540;2023-02-11T04:44:18;49.43;;;18.30;;
2187;SDS011;1100;52.014;8.540;2023-02-11T04:46:43;52.43;;;19.50;;
2187;SDS011;1100;52.014;8.540;2023-02-11T04:49:12;46.67;;;18.77;;
2187;SDS011;1100;52.014;8.540;2023-02-11T04:51:38;54.97;;;20.30;;
2187;SDS011;1100;52.014;8.540;2023-02-11T04:54:04;52.33;;;19.00;;
2187;SDS011;1100;52.014;8.540;2023-02-11T04:56:29;56.10;;;20.58;;
2187;SDS011;1100;52.014;8.540;2023-02-11T04:58:54;47.73;;;18.53;;
2187;SDS011;1100;52.014;8.540;2023-02-11T05:01:20;47.80;;;19.73;;
2187;SDS011;1100;52.014;8.540;2023-02-11T05:03:45;47.83;;;20.30;;
2187;SDS011;1100;52.014;8.540;2023-02-11T05:06:11;47.43;;;19.27;;
2187;SDS011;1100;52.014;8.540;2023-02-11T05:08:36;49.30;;;19.07;;
2187;SDS011;1100;52.014;8.540;2023-02-11T05:11:01;46.30;;;18.77;;
2187;SDS011;1100;52.014;8.540;2023-02-11T05:13:27;41.47;;;18.57;;
2187;SDS011;1100;52.014;8.540;2023-02-11T05:15:53;49.85;;;19.80;;
2187;SDS011;1100;52.014;8.540;2023-02-11T05:18:19;54.55;;;20.63;;
2187;SDS011;1100;52.014;8.540;2023-02-11T05:20:45;46.07;;;19.93;;
2187;SDS011;1100;52.014;8.540;2023-02-11T05:23:11;43.97;;;18.07;;
2187;SDS011;1100;52.014;8.540;2023-02-11T05:25:36;51.72;;;19.15;;
2187;SDS011;1100;52.014;8.540;2023-02-11T05:28:02;51.70;;;20.58;;
2187;SDS011;1100;52.014;8.540;2023-02-11T05:30:28;50.13;;;19.60;;
2187;SDS011;1100;52.014;8.540;2023-02-11T05:32:54;52.75;;;19.67;;
2187;SDS011;1100;52.014;8.540;2023-02-11T05:35:20;50.40;;;19.00;;
2187;SDS011;1100;52.014;8.540;2023-02-11T05:37:45;46.03;;;18.53;;
2187;SDS011;1100;52.014;8.540;2023-02-11T05:40:10;58.50;;;21.83;;
2187;SDS011;1100;52.014;8.540;2023-02-11T05:42:36;44.83;;;18.80;;
2187;SDS011;1100;52.014;8.540;2023-02-11T05:45:01;46.37;;;18.60;;
2187;SDS011;1100;52.014;8.540;2023-02-11T05:47:27;53.67;;;20.05;;
2187;SDS011;1100;52.014;8.540;2023-02-11T05:49:52;49.80;;;19.67;;
2187;SDS011;1100;52.014;8.540;2023-02-11T05:52:18;51.53;;;19.37;;
2187;SDS011;1100;52.014;8.540;2023-02-11T05:54:45;47.05;;;18.63;;
2187;SDS011;1100;52.014;8.540;2023-02-11T05:57:10;47.03;;;18.40;;
2187;SDS011;1100;52.014;8.540;2023-02-11T05:59:35;50.00;;;21.00;;
2187;SDS011;1100;52.014;8.540;2023-02-11T06:02:01;46.10;;;19.73;;
2187;SDS011;1100;52.014;8.540;2023-02-11T06:04:26;62.40;;;19.48;;
2187;SDS011;1100;52.014;8.540;2023-02-11T06:06:51;52.87;;;20.03;;
2187;SDS011;1100;52.014;8.540;2023-02-11T06:09:17;53.27;;;20.47;;
2187;SDS011;1100;52.014;8.540;2023-02-11T06:11:42;49.27;;;20.20;;
2187;SDS011;1100;52.014;8.540;2023-02-11T06:14:07;46.80;;;18.77;;
2187;SDS011;1100;52.014;8.540;2023-02-11T06:16:33;54.50;;;19.95;;
2187;SDS011;1100;52.014;8.540;2023-02-11T06:18:59;48.40;;;19.50;;
2187;SDS011;1100;52.014;8.540;2023-02-11T06:21:24;46.43;;;19.97;;
2187;SDS011;1100;52.014;8.540;2023-02-11T06:23:49;50.50;;;20.60;;
2187;SDS011;1100;52.014;8.540;2023-02-11T06:26:19;54.10;;;20.67;;
2187;SDS011;1100;52.014;8.540;2023-02-11T06:28:46;53.03;;;20.88;;
2187;SDS011;1100;52.014;8.540;2023-02-11T06:31:12;49.88;;;20.45;;
2187;SDS011;1100;52.014;8.540;2023-02-11T06:33:38;51.37;;;19.90;;
2187;SDS011;1100;52.014;8.540;2023-02-11T06:36:03;49.70;;;20.83;;
2187;SDS011;1100;52.014;8.540;2023-02-11T06:38:36;51.77;;;20.57;;
2187;SDS011;1100;52.014;8.540;2023-02-11T06:41:01;53.63;;;20.63;;
2187;SDS011;1100;52.014;8.540;2023-02-11T06:43:26;52.63;;;20.53;;
2187;SDS011;1100;52.014;8.540;2023-02-11T06:45:52;51.03;;;20.67;;
2187;SDS011;1100;52.014;8.540;2023-02-11T06:48:18;53.10;;;22.85;;
2187;SDS011;1100;52.014;8.540;2023-02-11T06:50:44;48.30;;;20.50;;
2187;SDS011;1100;52.014;8.540;2023-02-11T06:53:09;51.23;;;21.30;;
2187;SDS011;1100;52.014;8.540;2023-02-11T06:55:34;55.30;;;21.57;;
2187;SDS011;1100;52.014;8.540;2023-02-11T06:58:00;63.90;;;24.70;;
2187;SDS011;1100;52.014;8.540;2023-02-11T07:00:25;52.53;;;20.37;;
2187;SDS011;1100;52.014;8.540;2023-02-11T07:02:50;56.03;;;21.80;;
2187;SDS011;1100;52.014;8.540;2023-02-11T07:05:16;54.00;;;21.23;;
2187;SDS011;1100;52.014;8.540;2023-02-11T07:07:41;61.93;;;23.07;;
2187;SDS011;1100;52.014;8.540;2023-02-11T07:10:07;55.30;;;22.58;;
2187;SDS011;1100;52.014;8.540;2023-02-11T07:12:33;59.10;;;23.47;;
2187;SDS011;1100;52.014;8.540;2023-02-11T07:14:58;59.40;;;23.60;;
2187;SDS011;1100;52.014;8.540;2023-02-11T07:17:23;64.20;;;23.03;;
2187;SDS011;1100;52.014;8.540;2023-02-11T07:19:49;54.30;;;20.52;;
2187;SDS011;1100;52.014;8.540;2023-02-11T07:22:14;57.40;;;22.60;;
2187;SDS011;1100;52.014;8.540;2023-02-11T07:24:39;57.10;;;23.20;;
2187;SDS011;1100;52.014;8.540;2023-02-11T07:27:05;56.42;;;23.13;;
2187;SDS011;1100;52.014;8.540;2023-02-11T07:29:30;62.70;;;23.40;;
2187;SDS011;1100;52.014;8.540;2023-02-11T07:31:56;57.22;;;22.35;;
2187;SDS011;1100;52.014;8.540;2023-02-11T07:34:22;55.93;;;21.77;;
2187;SDS011;1100;52.014;8.540;2023-02-11T07:36:47;62.33;;;24.63;;
2187;SDS011;1100;52.014;8.540;2023-02-11T07:39:13;56.60;;;22.07;;
2187;SDS011;1100;52.014;8.540;2023-02-11T07:41:38;64.13;;;23.15;;
2187;SDS011;1100;52.014;8.540;2023-02-11T07:44:04;65.17;;;24.77;;
2187;SDS011;1100;52.014;8.540;2023-02-11T07:46:30;65.20;;;24.53;;
2187;SDS011;1100;52.014;8.540;2023-02-11T07:48:55;62.13;;;23.27;;
2187;SDS011;1100;52.014;8.540;2023-02-11T07:51:22;61.45;;;23.60;;
2187;SDS011;1100;52.014;8.540;2023-02-11T07:53:49;64.37;;;23.80;;
2187;SDS011;1100;52.014;8.540;2023-02-11T07:56:16;68.00;;;24.38;;
2187;SDS011;1100;52.014;8.540;2023-02-11T07:58:42;66.80;;;24.25;;
2187;SDS011;1100;52.014;8.540;2023-02-11T08:01:11;61.67;;;22.93;;
2187;SDS011;1100;52.014;8.540;2023-02-11T08:03:39;63.28;;;24.92;;
2187;SDS011;1100;52.014;8.540;2023-02-11T08:06:07;60.28;;;24.00;;
2187;SDS011;1100;52.014;8.540;2023-02-11T08:08:34;65.80;;;24.10;;
2187;SDS011;1100;52.014;8.540;2023-02-11T08:13:35;67.75;;;24.17;;
2187;SDS011;1100;52.014;8.540;2023-02-11T08:16:01;68.18;;;24.88;;
2187;SDS011;1100;52.014;8.540;2023-02-11T08:18:27;65.50;;;23.95;;
2187;SDS011;1100;52.014;8.540;2023-02-11T08:20:52;67.60;;;24.83;;
2187;SDS011;1100;52.014;8.540;2023-02-11T08:23:18;72.23;;;25.80;;
2187;SDS011;1100;52.014;8.540;2023-02-11T08:25:43;61.73;;;23.97;;
2187;SDS011;1100;52.014;8.540;2023-02-11T08:28:08;65.97;;;24.13;;
2187;SDS011;1100;52.014;8.540;2023-02-11T08:30:34;71.63;;;27.00;;
2187;SDS011;1100;52.014;8.540;2023-02-11T08:32:59;68.33;;;25.23;;
2187;SDS011;1100;52.014;8.540;2023-02-11T08:35:25;65.25;;;25.42;;
2187;SDS011;1100;52.014;8.540;2023-02-11T08:37:50;67.40;;;24.70;;
2187;SDS011;1100;52.014;8.540;2023-02-11T08:40:17;71.57;;;25.93;;
2187;SDS011;1100;52.014;8.540;2023-02-11T08:42:42;67.38;;;25.83;;
2187;SDS011;1100;52.014;8.540;2023-02-11T08:45:07;84.00;;;26.70;;
2187;SDS011;1100;52.014;8.540;2023-02-11T08:47:34;68.18;;;26.60;;
2187;SDS011;1100;52.014;8.540;2023-02-11T08:50:00;77.17;;;27.23;;
2187;SDS011;1100;52.014;8.540;2023-02-11T08:52:25;71.50;;;26.00;;
2187;SDS011;1100;52.014;8.540;2023-02-11T08:54:50;70.87;;;26.10;;
2187;SDS011;1100;52.014;8.540;2023-02-11T08:57:16;73.85;;;26.45;;
2187;SDS011;1100;52.014;8.540;2023-02-11T08:59:41;73.20;;;25.83;;
2187;SDS011;1100;52.014;8.540;2023-02-11T09:02:09;70.00;;;23.83;;
2187;SDS011;1100;52.014;8.540;2023-02-11T09:04:36;72.75;;;25.13;;
2187;SDS011;1100;52.014;8.540;2023-02-11T09:07:01;75.80;;;27.63;;
2187;SDS011;1100;52.014;8.540;2023-02-11T09:09:27;71.23;;;25.67;;
2187;SDS011;1100;52.014;8.540;2023-02-11T09:11:52;77.10;;;25.47;;
2187;SDS011;1100;52.014;8.540;2023-02-11T09:14:21;74.05;;;25.88;;
2187;SDS011;1100;52.014;8.540;2023-02-11T09:16:48;75.18;;;25.88;;
2187;SDS011;1100;52.014;8.540;2023-02-11T09:19:15;80.65;;;26.88;;
2187;SDS011;1100;52.014;8.540;2023-02-11T09:21:40;70.13;;;23.63;;
2187;SDS011;1100;52.014;8.540;2023-02-11T09:24:05;81.07;;;27.30;;
2187;SDS011;1100;52.014;8.540;2023-02-11T09:26:31;77.80;;;26.90;;
2187;SDS011;1100;52.014;8.540;2023-02-11T09:28:58;82.55;;;28.33;;
2187;SDS011;1100;52.014;8.540;2023-02-11T09:31:25;79.43;;;26.27;;
2187;SDS011;1100;52.014;8.540;2023-02-11T09:33:53;81.03;;;26.85;;
2187;SDS011;1100;52.014;8.540;2023-02-11T09:36:23;84.93;;;28.23;;
2187;SDS011;1100;52.014;8.540;2023-02-11T09:38:50;81.82;;;27.73;;
2187;SDS011;1100;52.014;8.540;2023-02-11T09:43:48;84.78;;;28.27;;
2187;SDS011;1100;52.014;8.540;2023-02-11T09:46:17;84.75;;;28.13;;
2187;SDS011;1100;52.014;8.540;2023-02-11T09:48:44;87.23;;;28.63;;
2187;SDS011;1100;52.014;8.540;2023-02-11T09:51:18;80.35;;;28.40;;
2187;SDS011;1100;52.014;8.540;2023-02-11T09:53:50;80.78;;;26.50;;
2187;SDS011;1100;52.014;8.540;2023-02-11T09:56:21;78.75;;;26.13;;
2187;SDS011;1100;52.014;8.540;2023-02-11T09:58:47;80.15;;;26.63;;
2187;SDS011;1100;52.014;8.540;2023-02-11T10:04:00;78.77;;;26.13;;
2187;SDS011;1100;52.014;8.540;2023-02-11T10:14:54;77.43;;;25.38;;
2187;SDS011;1100;52.014;8.540;2023-02-11T10:20:20;72.10;;;25.35;;
2187;SDS011;1100;52.014;8.540;2023-02-11T10:22:48;78.78;;;25.48;;
2187;SDS011;1100;52.014;8.540;2023-02-11T10:25:21;70.43;;;24.13;;
2187;SDS011;1100;52.014;8.540;2023-02-11T10:27:46;81.15;;;26.20;;
2187;SDS011;1100;52.014;8.540;2023-02-11T10:32:48;75.10;;;24.85;;
2187;SDS011;1100;52.014;8.540;2023-02-11T10:35:20;73.72;;;26.10;;
2187;SDS011;1100;52.014;8.540;2023-02-11T10:37:47;73.03;;;24.88;;
2187;SDS011;1100;52.014;8.540;2023-02-11T10:40:13;75.90;;;25.92;;
2187;SDS011;1100;52.014;8.540;2023-02-11T10:42:41;73.37;;;25.53;;
2187;SDS011;1100;52.014;8.540;2023-02-11T10:45:15;84.53;;;25.80;;
2187;SDS011;1100;52.014;8.540;2023-02-11T10:47:46;69.07;;;23.25;;
2187;SDS011;1100;52.014;8.540;2023-02-11T10:52:48;74.75;;;23.98;;
2187;SDS011;1100;52.014;8.540;2023-02-11T10:55:14;73.80;;;25.23;;
2187;SDS011;1100;52.014;8.540;2023-02-11T10:57:57;84.95;;;28.98;;
2187;SDS011;1100;52.014;8.540;2023-02-11T11:02:54;73.63;;;25.43;;
2187;SDS011;1100;52.014;8.540;2023-02-11T11:05:24;76.18;;;25.30;;
2187;SDS011;1100;52.014;8.540;2023-02-11T11:08:03;68.90;;;24.57;;
2187;SDS011;1100;52.014;8.540;2023-02-11T11:15:48;66.38;;;24.08;;
2187;SDS011;1100;52.014;8.540;2023-02-11T11:18:36;71.40;;;24.20;;
2187;SDS011;1100;52.014;8.540;2023-02-11T11:21:10;69.43;;;24.63;;
2187;SDS011;1100;52.014;8.540;2023-02-11T11:23:38;70.93;;;23.85;;
2187;SDS011;1100;52.014;8.540;2023-02-11T11:26:05;72.85;;;24.40;;
2187;SDS011;1100;52.014;8.540;2023-02-11T11:31:43;76.68;;;25.30;;
2187;SDS011;1100;52.014;8.540;2023-02-11T11:34:20;77.27;;;25.20;;
2187;SDS011;1100;52.014;8.540;2023-02-11T11:36:49;74.25;;;24.00;;
2187;SDS011;1100;52.014;8.540;2023-02-11T11:39:22;73.75;;;24.42;;
2187;SDS011;1100;52.014;8.540;2023-02-11T11:41:52;72.00;;;24.20;;
2187;SDS011;1100;52.014;8.540;2023-02-11T11:44:26;77.00;;;24.10;;
2187;SDS011;1100;52.014;8.540;2023-02-11T11:52:49;66.68;;;23.80;;
2187;SDS011;1100;52.014;8.540;2023-02-11T11:55:21;74.38;;;23.73;;
2187;SDS011;1100;52.014;8.540;2023-02-11T11:57:47;67.47;;;23.20;;
2187;SDS011;1100;52.014;8.540;2023-02-11T12:00:18;68.03;;;23.30;;
2187;SDS011;1100;52.014;8.540;2023-02-11T12:05:53;73.50;;;24.13;;
2187;SDS011;1100;52.014;8.540;2023-02-11T12:22:00;63.13;;;21.60;;
2187;SDS011;1100;52.014;8.540;2023-02-11T12:29:54;67.43;;;22.60;;
2187;SDS011;1100;52.014;8.540;2023-02-11T12:32:38;66.45;;;22.92;;
2187;SDS011;1100;52.014;8.540;2023-02-11T12:35:21;62.08;;;22.38;;
2187;SDS011;1100;52.014;8.540;2023-02-11T12:38:05;60.78;;;22.30;;
2187;SDS011;1100;52.014;8.540;2023-02-11T12:46:02;59.13;;;20.50;;
2187;SDS011;1100;52.014;8.540;2023-02-11T12:59:46;54.67;;;19.33;;
2187;SDS011;1100;52.014;8.540;2023-02-11T13:10:47;54.77;;;19.20;;
2187;SDS011;1100;52.014;8.540;2023-02-11T13:15:57;51.97;;;20.42;;
2187;SDS011;1100;52.014;8.540;2023-02-11T13:18:41;53.78;;;19.08;;
2187;SDS011;1100;52.014;8.540;2023-02-11T13:29:14;47.37;;;17.60;;
2187;SDS011;1100;52.014;8.540;2023-02-11T13:31:54;44.60;;;17.10;;
2187;SDS011;1100;52.014;8.540;2023-02-11T13:42:49;40.87;;;16.07;;
2187;SDS011;1100;52.014;8.540;2023-02-11T13:45:39;46.85;;;17.17;;
2187;SDS011;1100;52.014;8.540;2023-02-11T13:48:13;50.35;;;17.02;;
2187;SDS011;1100;52.014;8.540;2023-02-11T13:50:45;40.92;;;16.42;;
2187;SDS011;1100;52.014;8.540;2023-02-11T13:53:13;46.88;;;18.00;;
2187;SDS011;1100;52.014;8.540;2023-02-11T13:55:42;41.03;;;16.47;;
2187;SDS011;1100;52.014;8.540;2023-02-11T14:19:41;40.17;;;15.77;;
2187;SDS011;1100;52.014;8.540;2023-02-11T14:27:00;40.80;;;15.57;;
2187;SDS011;1100;52.014;8.540;2023-02-11T14:32:04;41.42;;;16.52;;
2187;SDS011;1100;52.014;8.540;2023-02-11T14:42:20;42.22;;;16.35;;
2187;SDS011;1100;52.014;8.540;2023-02-11T14:44:50;43.42;;;17.65;;
2187;SDS011;1100;52.014;8.540;2023-02-11T14:47:20;42.28;;;15.43;;
2187;SDS011;1100;52.014;8.540;2023-02-11T14:49:51;39.58;;;15.60;;
2187;SDS011;1100;52.014;8.540;2023-02-11T14:52:22;40.73;;;15.83;;
2187;SDS011;1100;52.014;8.540;2023-02-11T14:54:53;39.30;;;16.50;;
2187;SDS011;1100;52.014;8.540;2023-02-11T14:57:31;40.53;;;15.38;;
2187;SDS011;1100;52.014;8.540;2023-02-11T14:59:58;46.03;;;17.83;;
2187;SDS011;1100;52.014;8.540;2023-02-11T15:02:34;40.70;;;15.40;;
2187;SDS011;1100;52.014;8.540;2023-02-11T15:07:57;40.20;;;16.17;;
2187;SDS011;1100;52.014;8.540;2023-02-11T15:10:27;38.03;;;14.88;;
2187;SDS011;1100;52.014;8.540;2023-02-11T15:12:56;44.47;;;15.95;;
2187;SDS011;1100;52.014;8.540;2023-02-11T15:15:23;37.77;;;15.33;;
2187;SDS011;1100;52.014;8.540;2023-02-11T15:17:50;41.28;;;16.45;;
2187;SDS011;1100;52.014;8.540;2023-02-11T15:20:19;37.35;;;15.85;;
2187;SDS011;1100;52.014;8.540;2023-02-11T15:22:50;37.77;;;15.00;;
2187;SDS011;1100;52.014;8.540;2023-02-11T15:25:20;39.40;;;16.15;;
2187;SDS011;1100;52.014;8.540;2023-02-11T15:27:51;42.00;;;16.13;;
2187;SDS011;1100;52.014;8.540;2023-02-11T15:32:45;36.20;;;15.80;;
2187;SDS011;1100;52.014;8.540;2023-02-11T15:35:15;40.20;;;15.48;;
2187;SDS011;1100;52.014;8.540;2023-02-11T15:37:41;43.60;;;15.80;;
2187;SDS011;1100;52.014;8.540;2023-02-11T15:40:15;42.05;;;15.73;;
2187;SDS011;1100;52.014;8.540;2023-02-11T15:45:41;39.63;;;15.88;;
2187;SDS011;1100;52.014;8.540;2023-02-11T15:48:32;41.08;;;15.77;;
2187;SDS011;1100;52.014;8.540;2023-02-11T15:51:02;41.83;;;15.90;;
2187;SDS011;1100;52.014;8.540;2023-02-11T15:53:39;39.40;;;14.77;;
2187;SDS011;1100;52.014;8.540;2023-02-11T15:56:14;36.17;;;15.15;;
2187;SDS011;1100;52.014;8.540;2023-02-11T15:58:44;37.75;;;15.60;;
2187;SDS011;1100;52.014;8.540;2023-02-11T16:01:12;38.83;;;15.55;;
2187;SDS011;1100;52.014;8.540;2023-02-11T16:03:39;40.50;;;16.00;;
2187;SDS011;1100;52.014;8.540;2023-02-11T16:08:39;39.05;;;16.38;;
2187;SDS011;1100;52.014;8.540;2023-02-11T16:11:17;37.23;;;15.37;;
2187;SDS011;1100;52.014;8.540;2023-02-11T16:13:49;35.22;;;15.18;;
2187;SDS011;1100;52.014;8.540;2023-02-11T16:16:18;38.23;;;15.97;;
2187;SDS011;1100;52.014;8.540;2023-02-11T16:18:52;35.85;;;15.27;;
2187;SDS011;1100;52.014;8.540;2023-02-11T16:21:43;33.92;;;14.77;;
2187;SDS011;1100;52.014;8.540;2023-02-11T16:24:18;39.28;;;14.90;;
2187;SDS011;1100;52.014;8.540;2023-02-11T16:26:49;36.67;;;15.98;;
2187;SDS011;1100;52.014;8.540;2023-02-11T16:29:24;42.70;;;14.90;;
2187;SDS011;1100;52.014;8.540;2023-02-11T16:31:52;35.55;;;14.80;;
2187;SDS011;1100;52.014;8.540;2023-02-11T16:34:28;43.60;;;15.15;;
2187;SDS011;1100;52.014;8.540;2023-02-11T16:36:53;36.10;;;15.23;;
2187;SDS011;1100;52.014;8.540;2023-02-11T16:39:19;34.90;;;15.17;;
2187;SDS011;1100;52.014;8.540;2023-02-11T16:41:48;39.20;;;15.75;;
2187;SDS011;1100;52.014;8.540;2023-02-11T16:44:15;39.13;;;15.25;;
2187;SDS011;1100;52.014;8.540;2023-02-11T16:46:41;35.95;;;14.98;;
2187;SDS011;1100;52.014;8.540;2023-02-11T16:49:17;39.30;;;15.23;;
2187;SDS011;1100;52.014;8.540;2023-02-11T16:51:47;40.53;;;16.60;;
2187;SDS011;1100;52.014;8.540;2023-02-11T16:54:15;39.35;;;15.18;;
2187;SDS011;1100;52.014;8.540;2023-02-11T16:56:42;37.35;;;15.30;;
2187;SDS011;1100;52.014;8.540;2023-02-11T16:59:08;35.70;;;14.65;;
2187;SDS011;1100;52.014;8.540;2023-02-11T17:01:34;37.07;;;15.33;;
2187;SDS011;1100;52.014;8.540;2023-02-11T17:04:02;38.22;;;15.05;;
2187;SDS011;1100;52.014;8.540;2023-02-11T17:06:28;38.03;;;15.30;;
2187;SDS011;1100;52.014;8.540;2023-02-11T17:08:53;42.00;;;15.50;;
2187;SDS011;1100;52.014;8.540;2023-02-11T17:11:18;39.07;;;14.93;;
2187;SDS011;1100;52.014;8.540;2023-02-11T17:13:44;40.57;;;15.10;;
2187;SDS011;1100;52.014;8.540;2023-02-11T17:16:20;37.90;;;15.30;;
2187;SDS011;1100;52.014;8.540;2023-02-11T17:18:47;37.53;;;15.33;;
2187;SDS011;1100;52.014;8.540;2023-02-11T17:21:13;35.33;;;15.07;;
2187;SDS011;1100;52.014;8.540;2023-02-11T17:23:39;36.58;;;14.95;;
2187;SDS011;1100;52.014;8.540;2023-02-11T17:26:05;43.43;;;16.00;;
2187;SDS011;1100;52.014;8.540;2023-02-11T17:28:31;40.07;;;16.40;;
2187;SDS011;1100;52.014;8.540;2023-02-11T17:30:56;37.03;;;15.88;;
2187;SDS011;1100;52.014;8.540;2023-02-11T17:33:22;39.13;;;16.43;;
2187;SDS011;1100;52.014;8.540;2023-02-11T17:35:47;40.40;;;16.30;;
2187;SDS011;1100;52.014;8.540;2023-02-11T17:38:13;37.30;;;15.30;;
2187;SDS011;1100;52.014;8.540;2023-02-11T17:40:38;38.97;;;15.97;;
2187;SDS011;1100;52.014;8.540;2023-02-11T17:43:03;40.30;;;14.80;;
2187;SDS011;1100;52.014;8.540;2023-02-11T17:45:29;43.87;;;16.47;;
2187;SDS011;1100;52.014;8.540;2023-02-11T17:47:54;38.60;;;16.97;;
2187;SDS011;1100;52.014;8.540;2023-02-11T17:50:19;42.23;;;16.63;;
2187;SDS011;1100;52.014;8.540;2023-02-11T17:52:45;37.20;;;15.60;;
2187;SDS011;1100;52.014;8.540;2023-02-11T17:55:10;37.77;;;15.80;;